Time;durP1;ratioP1;P1;durP2;ratioP2;P2;SDS_P1;SDS_P2;PMS_P1;PMS_P2;Temp;Humidity;BMP_temperature;BMP_pressure;BME280_temperature;BME280_humidity;BME280_pressure;Samples;Min_cycle;Max_cycle;Signal;HPM_P1;HPM_P2
2021/11/25 00:01:14;;;;;;;21.65;9.18;;;;;;;0.58;87.81;98425.69;5074094;28;21843;-71
2021/11/25 00:03:39;;;;;;;24.02;9.55;;;;;;;0.61;88.03;98424.53;5069168;28;20074;-71
2021/11/25 00:06:04;;;;;;;20.35;9.40;;;;;;;0.70;88.07;98425.47;5071060;28;20028;-72
2021/11/25 00:08:30;;;;;;;20.30;8.75;;;;;;;0.43;88.09;98400.56;5073816;28;20055;-71
2021/11/25 00:10:55;;;;;;;20.88;8.48;;;;;;;0.67;88.13;98423.09;5075127;28;20028;-71
2021/11/25 00:13:20;;;;;;;19.15;8.48;;;;;;;0.47;88.14;98404.56;5074542;28;20478;-72
2021/11/25 00:15:46;;;;;;;22.23;8.65;;;;;;;0.58;88.63;98409.72;5064284;28;20051;-71
2021/11/25 00:18:11;;;;;;;19.92;8.50;;;;;;;0.49;88.68;98399.13;5073591;28;20029;-70
2021/11/25 00:20:36;;;;;;;20.95;9.18;;;;;;;0.59;88.61;98423.84;5073349;28;20021;-72
2021/11/25 00:23:02;;;;;;;22.00;9.20;;;;;;;0.48;89.04;98397.44;5057471;28;20031;-71
2021/11/25 00:25:27;;;;;;;20.88;9.00;;;;;;;0.52;88.42;98404.13;5071907;28;20493;-70
2021/11/25 00:27:53;;;;;;;20.13;8.80;;;;;;;0.52;88.41;98382.84;5072587;28;20107;-72
2021/11/25 00:30:18;;;;;;;22.50;8.95;;;;;;;0.50;88.60;98387.47;5074288;28;20086;-72
2021/11/25 00:32:44;;;;;;;22.38;9.43;;;;;;;0.57;88.34;98399.19;5074405;28;20466;-70
2021/11/25 00:35:11;;;;;;;18.45;9.23;;;;;;;0.63;88.49;98391.47;5073391;28;20543;-72
2021/11/25 00:37:38;;;;;;;20.63;9.38;;;;;;;0.46;88.59;98357.66;5058252;28;20029;-72
2021/11/25 00:40:10;;;;;;;22.48;10.13;;;;;;;0.65;88.11;98378.84;5053084;28;20021;-72
2021/11/25 00:42:36;;;;;;;19.55;9.50;;;;;;;0.58;88.09;98361.78;5055508;28;20403;-71
2021/11/25 00:45:03;;;;;;;21.98;8.68;;;;;;;0.47;88.14;98348.69;5063034;28;20032;-72
2021/11/25 00:47:28;;;;;;;18.95;9.07;;;;;;;0.68;88.38;98376.84;5067533;28;20039;-71
2021/11/25 00:49:53;;;;;;;27.85;10.57;;;;;;;0.72;88.41;98387.06;5073831;28;20029;-72
2021/11/25 00:52:19;;;;;;;23.20;9.52;;;;;;;0.57;88.16;98361.94;5091916;28;20025;-70
2021/11/25 00:54:45;;;;;;;21.25;8.98;;;;;;;0.52;88.62;98361.53;5093680;28;20052;-71
2021/11/25 00:57:10;;;;;;;22.40;9.27;;;;;;;0.50;88.70;98347.53;5085195;28;20054;-72
2021/11/25 00:59:35;;;;;;;22.77;9.70;;;;;;;0.59;89.03;98363.47;5083663;28;20086;-71
2021/11/25 01:02:00;;;;;;;22.67;9.50;;;;;;;0.31;88.83;98328.06;5075764;28;20055;-70
2021/11/25 01:04:26;;;;;;;21.48;9.07;;;;;;;0.56;88.53;98350.44;5074982;28;20071;-72
2021/11/25 01:06:51;;;;;;;22.30;9.50;;;;;;;0.57;88.22;98354.78;5064527;28;20024;-72
2021/11/25 01:09:17;;;;;;;19.73;9.02;;;;;;;0.58;88.07;98342.34;5067881;28;20021;-71
2021/11/25 01:11:44;;;;;;;24.15;9.30;;;;;;;0.51;88.07;98349.25;5084089;28;20113;-71
2021/11/25 01:14:10;;;;;;;22.38;9.40;;;;;;;0.68;88.33;98367.03;5083606;28;20021;-71
2021/11/25 01:16:35;;;;;;;20.95;9.13;;;;;;;0.65;88.38;98367.34;5077381;28;20021;-71
2021/11/25 01:19:01;;;;;;;23.20;9.77;;;;;;;0.63;88.60;98367.50;5073610;28;20024;-70
2021/11/25 01:21:26;;;;;;;21.48;10.10;;;;;;;0.57;88.65;98332.66;5072663;28;20414;-72
2021/11/25 01:23:51;;;;;;;20.55;9.23;;;;;;;0.73;88.14;98358.59;5071828;28;20047;-71
2021/11/25 01:26:17;;;;;;;21.00;9.85;;;;;;;0.69;87.94;98360.72;5063584;28;20029;-70
2021/11/25 01:28:43;;;;;;;22.02;9.70;;;;;;;0.52;88.09;98330.44;5072513;28;20029;-73
2021/11/25 01:31:08;;;;;;;20.23;10.07;;;;;;;0.51;88.45;98315.47;5059717;28;20024;-71
2021/11/25 01:33:34;;;;;;;22.02;9.80;;;;;;;0.70;88.09;98325.13;5060244;28;20043;-72
2021/11/25 01:36:00;;;;;;;22.75;9.55;;;;;;;0.67;88.22;98330.75;5070177;28;20020;-71
2021/11/25 01:38:28;;;;;;;19.13;9.30;;;;;;;0.75;88.17;98330.81;5067567;28;20060;-71
2021/11/25 01:40:53;;;;;;;24.08;9.95;;;;;;;0.90;87.54;98354.28;5062610;28;20055;-73
2021/11/25 01:43:22;;;;;;;22.50;9.45;;;;;;;0.56;87.31;98315.84;5072623;28;20643;-72
2021/11/25 01:45:52;;;;;;;20.02;9.32;;;;;;;0.83;87.95;98344.22;5065216;28;20021;-72
2021/11/25 01:48:18;;;;;;;21.45;9.50;;;;;;;0.68;87.84;98316.44;5068246;28;20641;-72
2021/11/25 01:50:44;;;;;;;19.23;9.23;;;;;;;0.65;88.40;98322.94;5072027;28;20028;-72
2021/11/25 01:53:12;;;;;;;21.65;8.75;;;;;;;0.93;87.45;98337.97;5071105;28;20062;-71
2021/11/25 01:55:38;;;;;;;22.70;9.93;;;;;;;0.83;87.09;98324.75;5063861;28;20021;-70
2021/11/25 01:58:03;;;;;;;23.35;10.60;;;;;;;0.76;87.28;98321.00;5061641;28;20053;-71
2021/11/25 02:00:35;;;;;;;21.00;10.20;;;;;;;0.80;87.89;98338.38;5082484;28;20067;-71
2021/11/25 02:03:03;;;;;;;23.67;10.35;;;;;;;0.68;87.78;98319.09;5069687;28;20118;-71
2021/11/25 02:05:29;;;;;;;21.30;9.88;;;;;;;0.65;87.41;98298.13;5059674;28;20016;-71
2021/11/25 02:07:54;;;;;;;22.90;10.00;;;;;;;0.89;87.10;98332.09;5060535;28;20032;-71
2021/11/25 02:10:22;;;;;;;27.08;10.52;;;;;;;0.91;87.26;98318.66;5066403;28;20053;-71
2021/11/25 02:12:48;;;;;;;21.27;9.00;;;;;;;0.90;87.48;98309.81;5070734;28;20035;-71
2021/11/25 02:15:15;;;;;;;22.50;9.70;;;;;;;0.90;87.42;98307.16;5052565;28;20021;-73
2021/11/25 02:17:41;;;;;;;20.85;10.23;;;;;;;0.94;87.22;98319.16;5071299;28;20028;-72
2021/11/25 02:20:08;;;;;;;21.23;9.77;;;;;;;1.00;87.39;98315.91;5071946;28;20031;-73
2021/11/25 02:22:35;;;;;;;22.75;10.35;;;;;;;0.91;87.36;98316.81;5068251;28;20024;-71
2021/11/25 02:25:01;;;;;;;21.38;10.05;;;;;;;0.95;87.02;98312.03;5062410;28;20031;-72
2021/11/25 02:27:26;;;;;;;23.30;9.98;;;;;;;0.89;87.17;98326.78;5070976;28;20033;-72
2021/11/25 02:29:51;;;;;;;21.38;10.07;;;;;;;0.91;88.06;98311.50;5061290;28;20100;-72
2021/11/25 02:32:39;;;;;;;25.10;10.68;;;;;;;0.88;88.01;98314.47;5070863;28;20051;-71
2021/11/25 02:35:09;;;;;;;31.80;11.75;;;;;;;0.80;88.21;98290.44;5067306;28;20115;-72
2021/11/25 02:37:35;;;;;;;27.98;12.05;;;;;;;0.89;88.05;98305.47;5065033;28;20511;-71
2021/11/25 02:40:12;;;;;;;34.10;14.02;;;;;;;1.06;87.20;98301.13;5069561;28;20020;-73
2021/11/25 02:42:37;;;;;;;25.42;11.43;;;;;;;0.77;87.41;98264.94;5065433;28;20047;-71
2021/11/25 02:45:03;;;;;;;28.45;12.32;;;;;;;0.91;87.97;98276.88;5066835;28;20539;-73
2021/11/25 02:47:28;;;;;;;32.22;13.25;;;;;;;1.05;87.09;98291.47;5070068;28;20035;-73
2021/11/25 02:49:53;;;;;;;23.73;11.13;;;;;;;0.78;87.91;98255.13;5071453;28;20078;-73
2021/11/25 02:52:20;;;;;;;22.58;10.00;;;;;;;0.78;87.88;98253.28;5068889;28;20037;-73
2021/11/25 02:54:46;;;;;;;22.25;10.68;;;;;;;1.05;88.23;98283.47;5069507;28;20052;-73
2021/11/25 02:57:11;;;;;;;24.10;10.15;;;;;;;0.91;88.21;98260.88;5058797;28;20066;-73
2021/11/25 02:59:36;;;;;;;21.08;10.25;;;;;;;0.96;88.50;98255.94;5069663;28;20048;-71
2021/11/25 03:02:02;;;;;;;22.42;9.85;;;;;;;0.86;88.46;98244.53;5069881;28;20029;-70
2021/11/25 03:04:27;;;;;;;26.77;10.88;;;;;;;0.81;89.32;98239.69;5070953;28;20028;-71
2021/11/25 03:06:52;;;;;;;27.52;11.30;;;;;;;1.09;87.79;98264.34;5068565;28;20017;-71
2021/11/25 03:09:19;;;;;;;28.63;11.82;;;;;;;1.05;88.30;98273.66;5074785;28;20522;-71
2021/11/25 03:11:44;;;;;;;22.73;10.40;;;;;;;0.97;88.81;98254.97;5067102;28;20024;-71
2021/11/25 03:14:10;;;;;;;26.05;10.10;;;;;;;0.93;88.86;98258.91;5088681;28;20490;-71
2021/11/25 03:16:36;;;;;;;25.63;11.10;;;;;;;0.96;88.91;98258.59;5067452;28;20132;-72
2021/11/25 03:19:02;;;;;;;20.20;10.93;;;;;;;1.03;88.28;98262.31;5074034;28;20517;-73
2021/11/25 03:21:28;;;;;;;25.17;10.50;;;;;;;0.94;87.61;98228.59;5074957;28;20028;-73
2021/11/25 03:23:55;;;;;;;23.02;10.07;;;;;;;1.07;88.14;98258.34;5072331;28;20024;-73
2021/11/25 03:26:24;;;;;;;24.85;10.50;;;;;;;1.12;87.54;98257.03;5066850;28;20021;-73
2021/11/25 03:28:50;;;;;;;24.35;9.95;;;;;;;1.15;88.64;98254.06;5066451;28;20024;-73
2021/11/25 03:31:19;;;;;;;22.83;10.10;;;;;;;1.23;87.90;98251.44;5075366;28;20038;-73
2021/11/25 03:33:44;;;;;;;25.42;10.10;;;;;;;1.17;86.57;98244.09;5074762;28;20036;-73
2021/11/25 03:36:11;;;;;;;24.67;12.18;;;;;;;1.30;86.96;98249.81;5061486;28;20033;-73
2021/11/25 03:38:37;;;;;;;23.33;10.88;;;;;;;1.22;86.44;98241.78;5063087;28;20032;-72
2021/11/25 03:41:04;;;;;;;24.88;10.63;;;;;;;1.16;86.51;98237.09;5075071;28;20491;-72
2021/11/25 03:43:29;;;;;;;26.40;10.60;;;;;;;0.94;86.88;98188.66;5069820;28;20025;-72
2021/11/25 03:45:56;;;;;;;28.27;11.77;;;;;;;1.24;86.50;98239.81;5070924;28;20428;-72
2021/11/25 03:48:23;;;;;;;24.92;10.77;;;;;;;0.96;86.82;98218.63;5054764;28;20494;-71
2021/11/25 03:50:50;;;;;;;22.38;9.15;;;;;;;0.81;87.69;98210.41;5066517;28;20027;-70
2021/11/25 03:53:16;;;;;;;24.85;11.25;;;;;;;0.97;88.10;98244.31;5072267;28;20029;-71
2021/11/25 03:55:41;;;;;;;24.35;11.27;;;;;;;1.01;87.70;98229.66;5060329;28;20367;-73
2021/11/25 03:58:07;;;;;;;25.63;10.52;;;;;;;0.93;87.71;98226.94;5072236;28;20032;-71
2021/11/25 04:00:32;;;;;;;23.77;10.00;;;;;;;1.00;87.76;98233.34;5074645;28;20210;-73
2021/11/25 04:03:00;;;;;;;24.67;10.07;;;;;;;1.26;87.61;98243.16;5070650;28;20024;-71
2021/11/25 04:05:25;;;;;;;26.58;10.70;;;;;;;1.13;86.19;98202.75;5074630;28;20482;-70
2021/11/25 04:07:50;;;;;;;24.55;10.85;;;;;;;1.00;86.09;98212.03;5068170;28;20121;-71
2021/11/25 04:10:17;;;;;;;28.00;11.10;;;;;;;0.90;86.65;98200.63;5080858;28;20029;-72
2021/11/25 04:12:43;;;;;;;30.40;11.40;;;;;;;1.13;86.57;98222.25;5064245;28;20020;-71
2021/11/25 04:15:10;;;;;;;25.95;11.60;;;;;;;1.22;86.71;98239.13;5072499;28;20078;-71
2021/11/25 04:17:35;;;;;;;22.50;10.55;;;;;;;0.98;87.53;98206.00;5072252;28;20509;-72
2021/11/25 04:20:01;;;;;;;25.17;11.05;;;;;;;0.89;87.54;98196.28;5070026;28;20028;-69
2021/11/25 04:22:26;;;;;;;23.30;10.32;;;;;;;1.01;88.45;98223.50;5073153;28;20117;-73
2021/11/25 04:24:54;;;;;;;24.75;10.85;;;;;;;1.10;88.41;98235.88;5069577;28;20029;-74
2021/11/25 04:27:20;;;;;;;26.80;11.57;;;;;;;1.06;88.27;98213.22;5071487;28;20046;-74
2021/11/25 04:29:52;;;;;;;25.00;11.30;;;;;;;1.09;88.29;98227.03;5070459;28;20028;-72
2021/11/25 04:37:47;;;;;;;24.20;11.23;;;;;;;1.17;87.60;98204.13;5072521;28;20051;-72
2021/11/25 04:40:12;;;;;;;24.75;10.98;;;;;;;1.07;87.40;98202.41;5067339;28;20474;-73
2021/11/25 04:42:37;;;;;;;26.15;10.25;;;;;;;1.00;88.49;98192.53;5073257;28;20035;-73
2021/11/25 04:45:04;;;;;;;28.30;11.55;;;;;;;1.09;88.39;98213.72;5071361;28;20378;-73
2021/11/25 04:47:30;;;;;;;27.63;11.20;;;;;;;1.17;88.64;98215.59;5072485;28;20034;-74
2021/11/25 04:49:55;;;;;;;28.00;11.38;;;;;;;1.06;88.42;98215.88;5072186;28;20115;-73
2021/11/25 04:52:20;;;;;;;25.92;11.45;;;;;;;1.03;88.34;98206.38;5073436;28;20024;-73
2021/11/25 04:54:46;;;;;;;27.23;12.30;;;;;;;0.95;88.90;98198.34;5072990;28;20021;-72
2021/11/25 04:57:11;;;;;;;26.10;11.15;;;;;;;1.27;87.56;98203.00;5071920;28;20111;-74
2021/11/25 04:59:36;;;;;;;28.63;11.27;;;;;;;1.41;87.31;98219.38;5068894;28;20152;-73
2021/11/25 05:02:02;;;;;;;31.55;12.38;;;;;;;1.40;86.26;98213.22;5070046;28;20038;-74
2021/11/25 05:04:27;;;;;;;28.27;11.73;;;;;;;1.13;87.63;98179.63;5073781;28;20111;-73
2021/11/25 05:06:53;;;;;;;30.35;12.05;;;;;;;1.29;87.53;98205.53;5061297;28;20039;-74
2021/11/25 05:09:18;;;;;;;28.60;12.10;;;;;;;1.05;87.21;98177.75;5053132;28;20029;-75
2021/11/25 05:11:44;;;;;;;27.10;11.23;;;;;;;1.23;87.63;98192.81;5061576;28;20025;-73
2021/11/25 05:14:09;;;;;;;31.13;12.38;;;;;;;1.22;87.98;98202.66;5073519;28;20103;-72
2021/11/25 05:16:34;;;;;;;28.33;12.00;;;;;;;1.01;88.33;98176.38;5071510;28;20033;-71
2021/11/25 05:19:00;;;;;;;25.35;12.00;;;;;;;0.98;88.56;98165.22;5070827;28;20047;-73
2021/11/25 05:21:25;;;;;;;26.50;12.45;;;;;;;1.01;88.84;98170.22;5072257;28;20065;-73
2021/11/25 05:23:50;;;;;;;27.38;11.13;;;;;;;1.14;88.51;98175.13;5067424;28;20111;-73
2021/11/25 05:26:16;;;;;;;30.58;12.50;;;;;;;1.12;87.33;98177.13;5069706;28;20063;-71
2021/11/25 05:28:41;;;;;;;36.10;15.48;;;;;;;1.05;88.26;98177.75;5071074;28;20028;-70
2021/11/25 05:31:06;;;;;;;34.53;14.50;;;;;;;1.36;87.19;98201.19;5070000;28;20036;-70
2021/11/25 05:33:32;;;;;;;29.88;13.13;;;;;;;1.07;88.42;98182.91;5071430;28;20134;-76
2021/11/25 05:35:57;;;;;;;30.08;12.52;;;;;;;1.03;87.81;98182.41;5069495;28;20024;-73
2021/11/25 05:38:22;;;;;;;29.33;12.18;;;;;;;1.06;88.82;98195.41;5066280;28;20036;-73
2021/11/25 05:40:48;;;;;;;28.38;13.57;;;;;;;1.23;89.12;98208.81;5066065;28;20102;-73
2021/11/25 05:43:13;;;;;;;26.13;12.10;;;;;;;1.22;87.74;98193.81;5072169;28;20027;-77
2021/11/25 05:45:39;;;;;;;25.80;11.15;;;;;;;1.16;88.63;98197.97;5072050;28;20032;-76
2021/11/25 05:48:05;;;;;;;27.88;11.98;;;;;;;1.03;88.86;98179.75;5070058;28;20090;-75
2021/11/25 05:50:31;;;;;;;29.83;12.88;;;;;;;1.03;88.71;98171.75;5072629;28;20039;-78
2021/11/25 05:52:58;;;;;;;28.45;12.52;;;;;;;1.16;89.14;98197.97;5072851;28;20025;-78
2021/11/25 05:55:27;;;;;;;28.60;11.32;;;;;;;1.23;88.54;98199.00;5072201;28;20056;-74
2021/11/25 05:57:54;;;;;;;31.48;12.20;;;;;;;1.21;88.85;98205.47;5065720;28;20036;-76
2021/11/25 06:00:21;;;;;;;32.33;13.15;;;;;;;0.81;89.26;98149.16;5073727;28;20025;-77
2021/11/25 06:02:47;;;;;;;71.07;23.13;;;;;;;1.20;89.21;98201.13;5073831;28;20019;-77
2021/11/25 06:05:23;;;;;;;45.28;17.00;;;;;;;1.04;89.39;98177.91;5070545;28;20487;-74
2021/11/25 06:07:49;;;;;;;31.35;13.88;;;;;;;1.24;89.88;98205.16;5069773;28;20024;-75
2021/11/25 06:10:17;;;;;;;38.33;16.75;;;;;;;1.10;89.46;98187.91;5071025;28;21003;-73
2021/11/25 06:12:42;;;;;;;35.10;15.88;;;;;;;1.19;89.68;98205.63;5070568;28;20024;-71
2021/11/25 06:15:08;;;;;;;32.60;14.02;;;;;;;1.18;89.18;98187.13;5072298;28;20158;-71
2021/11/25 06:17:34;;;;;;;27.65;12.32;;;;;;;1.01;88.56;98155.09;5070892;28;20037;-72
2021/11/25 06:19:59;;;;;;;30.20;13.30;;;;;;;1.21;88.66;98182.34;5072069;28;20031;-70
2021/11/25 06:22:25;;;;;;;33.65;12.95;;;;;;;1.24;88.89;98202.50;5072419;28;20032;-72
2021/11/25 06:24:51;;;;;;;31.70;12.35;;;;;;;1.05;88.89;98180.41;5071904;28;20020;-74
2021/11/25 06:27:17;;;;;;;34.67;13.23;;;;;;;1.34;88.50;98195.22;5071853;28;20055;-72
2021/11/25 06:29:43;;;;;;;32.65;13.48;;;;;;;1.30;88.47;98204.50;5069437;28;20024;-74
2021/11/25 06:32:09;;;;;;;29.67;13.13;;;;;;;1.40;88.60;98199.06;5069866;28;20024;-70
2021/11/25 06:34:35;;;;;;;28.85;12.10;;;;;;;1.36;87.80;98200.38;5070943;28;20402;-71
2021/11/25 06:37:00;;;;;;;30.02;12.25;;;;;;;1.17;87.37;98164.97;5065483;28;20048;-75
2021/11/25 06:39:25;;;;;;;29.48;13.23;;;;;;;1.31;88.28;98203.53;5071647;28;20024;-73
2021/11/25 06:41:51;;;;;;;32.42;13.40;;;;;;;1.34;87.96;98202.34;5070563;28;20074;-69
2021/11/25 06:44:16;;;;;;;29.30;12.07;;;;;;;1.40;87.38;98210.56;5067035;28;20133;-68
2021/11/25 06:46:41;;;;;;;29.65;11.45;;;;;;;1.22;87.86;98173.34;5077937;28;20020;-72
2021/11/25 06:49:07;;;;;;;31.42;12.13;;;;;;;1.25;87.84;98199.66;5077811;28;20036;-75
2021/11/25 06:51:32;;;;;;;31.05;12.70;;;;;;;1.36;87.67;98221.69;5075431;28;20032;-77
2021/11/25 06:53:58;;;;;;;30.50;12.35;;;;;;;1.36;87.63;98195.88;5075269;28;20017;-76
2021/11/25 06:56:23;;;;;;;30.73;13.55;;;;;;;1.41;87.20;98208.72;5069864;28;20035;-73
2021/11/25 06:58:51;;;;;;;31.77;11.52;;;;;;;1.39;87.62;98216.03;5077044;28;20021;-77
2021/11/25 07:01:16;;;;;;;30.40;12.27;;;;;;;1.44;88.37;98224.38;5076416;28;20074;-72
2021/11/25 07:03:41;;;;;;;31.88;12.85;;;;;;;1.14;87.79;98170.63;5077820;28;20028;-71
2021/11/25 07:06:07;;;;;;;31.35;12.13;;;;;;;1.16;87.51;98184.63;5078279;28;20016;-72
2021/11/25 07:08:32;;;;;;;28.52;11.93;;;;;;;1.27;88.04;98195.00;5076275;28;20028;-72
2021/11/25 07:10:58;;;;;;;29.60;11.73;;;;;;;1.29;86.05;98190.34;5073999;28;20027;-72
2021/11/25 07:13:25;;;;;;;28.73;12.32;;;;;;;1.59;85.46;98208.63;5063594;28;20492;-72
2021/11/25 07:15:50;;;;;;;32.05;12.68;;;;;;;1.34;86.14;98195.22;5076481;28;20093;-71
2021/11/25 07:18:15;;;;;;;28.52;12.80;;;;;;;1.38;85.92;98193.88;5076353;28;20036;-71
2021/11/25 07:20:41;;;;;;;29.35;12.30;;;;;;;1.41;87.33;98204.22;5083887;28;20037;-75
2021/11/25 07:23:06;;;;;;;28.63;12.30;;;;;;;1.31;86.40;98193.72;5086804;28;20532;-73
2021/11/25 07:25:31;;;;;;;31.52;12.90;;;;;;;1.48;87.05;98215.94;5076992;28;20024;-70
2021/11/25 07:27:57;;;;;;;34.35;13.68;;;;;;;1.37;88.70;98213.56;5074754;28;20475;-74
2021/11/25 07:30:23;;;;;;;25.40;11.98;;;;;;;1.43;89.07;98228.91;5077440;28;20063;-75
2021/11/25 07:32:49;;;;;;;32.30;12.70;;;;;;;1.54;89.32;98236.59;5075781;28;20021;-79
2021/11/25 07:35:19;;;;;;;28.20;12.00;;;;;;;1.45;89.60;98210.91;5074729;28;20498;-73
2021/11/25 07:37:45;;;;;;;33.08;13.25;;;;;;;1.61;90.04;98225.31;5076050;28;20031;-71
2021/11/25 07:40:10;;;;;;;28.33;12.25;;;;;;;1.60;89.71;98212.97;5077362;28;20024;-73
2021/11/25 07:42:36;;;;;;;29.73;11.93;;;;;;;1.49;89.15;98190.97;5064792;28;20471;-73
2021/11/25 07:45:03;;;;;;;25.92;12.02;;;;;;;1.56;88.82;98184.97;5076627;28;20048;-74
2021/11/25 07:47:34;;;;;;;32.30;12.13;;;;;;;1.62;88.87;98190.47;5070786;28;20086;-74
2021/11/25 07:50:10;;;;;;;31.95;12.98;;;;;;;1.86;89.02;98219.06;5062905;28;20436;-71
2021/11/25 07:52:37;;;;;;;27.73;12.50;;;;;;;1.81;87.17;98210.72;5078127;28;20039;-72
2021/11/25 07:55:04;;;;;;;29.95;12.65;;;;;;;1.84;86.86;98206.91;5071466;28;20459;-72
2021/11/25 07:57:30;;;;;;;30.05;13.52;;;;;;;1.88;86.30;98218.91;5070153;28;20533;-71
2021/11/25 07:59:55;;;;;;;32.63;13.15;;;;;;;1.83;86.27;98227.38;5072594;28;20115;-76
2021/11/25 08:02:21;;;;;;;29.75;12.85;;;;;;;1.70;86.62;98227.00;5074341;28;20029;-80
2021/11/25 08:04:47;;;;;;;28.05;12.18;;;;;;;1.64;86.50;98209.00;5075306;28;20494;-78
2021/11/25 08:07:12;;;;;;;25.27;11.48;;;;;;;1.56;86.09;98175.13;5072958;28;20505;-71
2021/11/25 08:09:38;;;;;;;28.70;12.68;;;;;;;1.73;86.95;98208.03;5065521;28;20024;-76
2021/11/25 08:12:04;;;;;;;32.45;13.43;;;;;;;1.77;86.70;98203.19;5072632;28;20062;-74
2021/11/25 08:14:29;;;;;;;33.08;14.55;;;;;;;1.75;86.81;98198.84;5074233;28;20039;-72
2021/11/25 08:16:58;;;;;;;26.90;12.63;;;;;;;1.82;86.28;98184.88;5072951;28;20036;-77
2021/11/25 08:19:24;;;;;;;30.42;13.45;;;;;;;2.08;87.00;98216.78;5063434;28;20033;-73
2021/11/25 08:21:49;;;;;;;28.10;13.18;;;;;;;1.94;86.61;98195.09;5067620;28;20050;-70
2021/11/25 08:24:14;;;;;;;28.67;13.13;;;;;;;2.11;86.96;98216.44;5073011;28;20017;-73
2021/11/25 08:26:40;;;;;;;30.08;13.27;;;;;;;1.85;85.51;98168.53;5069611;28;20025;-73
2021/11/25 08:29:05;;;;;;;29.25;13.00;;;;;;;2.15;84.96;98202.63;5073960;28;20016;-76
2021/11/25 08:31:30;;;;;;;28.27;11.60;;;;;;;2.17;83.79;98187.28;5069124;28;20533;-71
2021/11/25 08:33:56;;;;;;;27.48;12.60;;;;;;;2.39;84.19;98212.47;5074455;28;20035;-70
2021/11/25 08:36:21;;;;;;;27.92;12.27;;;;;;;2.24;84.59;98192.78;5071893;28;20028;-71
2021/11/25 08:38:46;;;;;;;28.48;11.75;;;;;;;2.40;84.24;98218.66;5070143;28;22288;-72
2021/11/25 08:41:12;;;;;;;28.98;12.38;;;;;;;2.48;83.52;98218.66;5072803;28;20032;-72
2021/11/25 08:43:37;;;;;;;33.53;11.65;;;;;;;2.46;82.06;98203.81;5065414;28;20047;-72
2021/11/25 08:46:03;;;;;;;24.42;11.38;;;;;;;2.34;81.68;98180.13;5061048;28;20032;-75
2021/11/25 08:48:28;;;;;;;28.55;12.25;;;;;;;2.21;81.85;98169.09;5071438;28;20044;-78
2021/11/25 08:50:54;;;;;;;29.05;12.77;;;;;;;2.44;82.63;98187.09;5074986;28;20120;-78
2021/11/25 08:53:23;;;;;;;27.08;12.30;;;;;;;2.58;82.31;98199.81;5074972;28;20103;-80
2021/11/25 08:55:49;;;;;;;24.52;10.80;;;;;;;2.40;78.92;98178.59;5072090;28;20062;-74
2021/11/25 08:58:15;;;;;;;21.77;10.73;;;;;;;2.59;78.17;98198.78;5072190;28;20055;-74
2021/11/25 09:00:40;;;;;;;23.70;11.23;;;;;;;2.37;78.31;98200.31;5071137;28;20103;-68
2021/11/25 09:03:05;;;;;;;26.65;12.23;;;;;;;2.27;80.58;98207.63;5068279;28;20756;-70
2021/11/25 09:05:32;;;;;;;25.83;11.65;;;;;;;2.21;79.47;98190.44;5069602;28;20033;-76
2021/11/25 09:07:58;;;;;;;25.25;11.48;;;;;;;2.34;79.74;98172.09;5071419;28;20545;-75
2021/11/25 09:10:23;;;;;;;27.58;11.95;;;;;;;2.31;78.88;98156.44;5072684;28;20032;-70
2021/11/25 09:12:49;;;;;;;28.02;12.07;;;;;;;2.22;81.17;98192.09;5071797;28;20115;-70
2021/11/25 09:15:16;;;;;;;25.38;11.23;;;;;;;2.26;80.55;98158.75;5072854;28;20036;-70
2021/11/25 09:17:41;;;;;;;57.47;13.68;;;;;;;2.63;80.56;98194.78;5067636;28;20041;-70
2021/11/25 09:20:08;;;;;;;29.08;12.02;;;;;;;2.69;81.16;98203.97;5070784;28;20044;-73
2021/11/25 09:22:33;;;;;;;29.63;12.75;;;;;;;2.67;80.54;98180.09;5068088;28;20043;-74
2021/11/25 09:24:58;;;;;;;25.55;11.95;;;;;;;2.74;79.77;98185.59;5064951;28;20024;-74
2021/11/25 09:27:24;;;;;;;25.15;11.68;;;;;;;2.90;79.58;98206.94;5071959;28;20029;-70
2021/11/25 09:29:49;;;;;;;24.58;12.05;;;;;;;2.69;79.56;98178.09;5072060;28;20032;-72
2021/11/25 09:32:15;;;;;;;31.10;13.23;;;;;;;2.70;80.45;98194.94;5068145;28;20052;-70
2021/11/25 09:34:41;;;;;;;26.80;12.10;;;;;;;2.77;79.74;98188.75;5070638;28;20471;-73
2021/11/25 09:37:06;;;;;;;28.42;12.60;;;;;;;2.60;79.91;98185.28;5072789;28;20123;-75
2021/11/25 09:39:32;;;;;;;25.83;11.70;;;;;;;2.79;79.16;98189.44;5066533;28;20024;-74
2021/11/25 09:41:58;;;;;;;30.13;12.20;;;;;;;2.60;79.31;98160.44;5061297;28;20043;-74
2021/11/25 09:44:24;;;;;;;27.50;12.90;;;;;;;2.77;78.06;98218.16;5072173;28;20032;-69
2021/11/25 09:46:54;;;;;;;27.77;13.18;;;;;;;2.89;78.53;98221.31;5063483;28;20084;-69
2021/11/25 09:49:22;;;;;;;;;;;;;;;2.94;78.85;98212.81;5065342;28;20081;-72
2021/11/25 09:51:49;;;;;;;27.67;11.98;;;;;;;2.98;78.79;98211.44;5068151;28;19909;-69
2021/11/25 09:54:15;;;;;;;24.85;11.95;;;;;;;2.93;78.14;98206.59;5070011;28;20035;-69
2021/11/25 09:56:40;;;;;;;26.63;12.88;;;;;;;2.95;77.78;98209.13;5072623;28;20443;-68
2021/11/25 09:59:06;;;;;;;25.75;12.45;;;;;;;2.79;78.18;98192.09;5069819;28;20028;-74
2021/11/25 10:01:33;;;;;;;28.33;12.55;;;;;;;2.97;77.49;98204.44;5061001;28;20020;-72
2021/11/25 10:03:58;;;;;;;29.08;12.93;;;;;;;2.90;77.96;98187.41;5065955;28;20095;-73
2021/11/25 10:06:29;;;;;;;27.83;12.45;;;;;;;2.86;77.33;98168.22;5066281;28;22482;-70
2021/11/25 10:08:55;;;;;;;29.40;12.25;;;;;;;2.86;77.60;98189.59;5063136;28;20020;-70
2021/11/25 10:11:35;;;;;;;30.33;13.63;;;;;;;2.88;78.75;98200.09;5070669;28;20047;-70
2021/11/25 10:14:12;;;;;;;30.10;12.68;;;;;;;2.83;77.42;98201.47;5065326;28;20025;-70
2021/11/25 10:16:42;;;;;;;27.70;12.18;;;;;;;2.90;77.09;98180.22;5067299;28;20050;-70
2021/11/25 10:19:22;;;;;;;27.90;12.77;;;;;;;2.64;77.95;98173.25;5065828;28;20086;-70
2021/11/25 10:21:56;;;;;;;25.50;12.23;;;;;;;2.59;77.61;98170.28;5063571;28;20032;-70
2021/11/25 10:24:43;;;;;;;29.88;12.43;;;;;;;2.73;77.63;98189.28;5056925;28;20024;-70
2021/11/25 10:27:21;;;;;;;30.40;13.15;;;;;;;2.68;78.11;98165.75;5070533;28;20099;-68
2021/11/25 10:30:11;;;;;;;28.25;12.70;;;;;;;2.92;78.80;98196.94;5072619;28;20028;-68
2021/11/25 10:32:37;;;;;;;31.27;12.35;;;;;;;2.80;78.79;98169.75;5070615;28;20048;-68
2021/11/25 10:35:31;;;;;;;29.52;13.38;;;;;;;3.04;78.04;98189.41;5070287;28;20543;-68
2021/11/25 10:40:33;;;;;;;26.35;12.57;;;;;;;3.22;78.00;98182.00;5070367;28;20025;-70
2021/11/25 10:43:14;;;;;;;27.73;12.60;;;;;;;3.28;77.64;98183.97;5070437;28;20020;-70
2021/11/25 10:45:44;;;;;;;26.30;12.02;;;;;;;3.24;77.19;98185.31;5066080;28;20024;-70
2021/11/25 10:48:09;;;;;;;28.83;12.95;;;;;;;2.98;77.82;98125.94;5068946;28;20056;-70
2021/11/25 10:50:34;;;;;;;29.50;12.70;;;;;;;3.26;77.13;98180.66;5069564;28;20040;-70
2021/11/25 10:53:09;;;;;;;70.03;15.40;;;;;;;3.33;77.26;98174.59;5070009;28;20032;-70
2021/11/25 10:55:37;;;;;;;110.80;18.70;;;;;;;3.35;76.49;98161.91;5064617;28;20372;-71
2021/11/25 10:58:06;;;;;;;43.50;13.32;;;;;;;3.56;76.51;98186.19;5052053;28;20036;-73
2021/11/25 11:00:34;;;;;;;36.15;12.48;;;;;;;3.58;76.21;98186.03;5070402;28;20032;-69
2021/11/25 11:03:08;;;;;;;30.65;12.30;;;;;;;3.56;76.20;98186.19;5069703;28;20024;-76
2021/11/25 11:06:13;;;;;;;27.40;12.75;;;;;;;3.34;75.69;98168.25;5070713;28;20512;-75
2021/11/25 11:08:44;;;;;;;28.85;12.15;;;;;;;3.44;75.21;98172.41;5064535;28;20048;-73
2021/11/25 11:11:10;;;;;;;26.00;12.52;;;;;;;3.22;75.90;98147.25;5052128;28;20100;-72
2021/11/25 11:13:48;;;;;;;27.50;13.18;;;;;;;3.41;76.16;98187.97;5065017;28;20616;-71
2021/11/25 11:16:27;;;;;;;29.08;12.70;;;;;;;3.46;76.69;98196.31;5071048;28;20123;-76
2021/11/25 11:19:02;;;;;;;25.42;12.38;;;;;;;3.45;76.29;98183.91;5059217;28;20617;-72
2021/11/25 11:21:35;;;;;;;30.23;12.65;;;;;;;3.38;76.59;98178.44;5067111;28;20873;-76
2021/11/25 11:24:12;;;;;;;26.35;12.25;;;;;;;3.01;77.00;98112.22;5071388;28;20074;-77
2021/11/25 11:26:42;;;;;;;28.85;12.45;;;;;;;3.47;77.00;98171.22;5070360;28;20016;-79
2021/11/25 11:29:09;;;;;;;28.00;12.15;;;;;;;3.33;75.98;98150.53;5075130;28;20044;-73
2021/11/25 11:31:36;;;;;;;28.95;13.52;;;;;;;3.36;75.77;98169.75;5076137;28;20028;-71
2021/11/25 11:34:03;;;;;;;27.77;12.90;;;;;;;3.01;75.36;98115.75;5073861;28;20033;-76